Terminal Aerodrome Forecast
Issued by NWS Wilmington, OH

Current Version | Previous Version | Graphics & Text | Print | Product List | Glossary Off
Versions: 1 2 3 4 5 6 7 8 9 10 11 12 13 14 15 16

000
FTUS41 KILN 302300
TAFCMH
TAF
KCMH 302330Z 3100/3124 VRB03KT P6SM BKN040
     FM310800 VRB03KT P6SM BKN080
     FM311400 22008KT P6SM VCSH OVC040
     FM311700 27012G20KT 5SM -SHRA BR OVC025=

USA.gov is the U.S. government's official web portal to all federal, state and local government web resources and services.